Time;durP1;ratioP1;P1;durP2;ratioP2;P2;SDS_P1;SDS_P2;PMS_P1;PMS_P2;Temp;Humidity;BMP_temperature;BMP_pressure;BME280_temperature;BME280_humidity;BME280_pressure;Samples;Min_cycle;Max_cycle;Signal;HPM_P1;HPM_P2
2021/01/12 00:02:22;;;;;;;33.50;23.65;;;;;;;6.77;77.80;98911.34;6185765;23;20052;-79
2021/01/12 00:04:49;;;;;;;32.42;22.30;;;;;;;6.82;78.19;98897.19;6159465;23;20482;-80
2021/01/12 00:07:21;;;;;;;31.67;22.85;;;;;;;6.81;78.08;98898.97;6185687;23;20392;-80
2021/01/12 00:09:48;;;;;;;23.70;18.73;;;;;;;6.84;78.21;98896.16;6185426;23;20040;-80
2021/01/12 00:12:16;;;;;;;32.13;22.58;;;;;;;6.83;77.95;98897.09;6185426;23;20017;-81
2021/01/12 00:14:42;;;;;;;29.48;21.23;;;;;;;6.86;78.19;98880.38;6185753;23;20028;-81
2021/01/12 00:17:09;;;;;;;30.25;21.85;;;;;;;6.87;78.01;98887.28;6186027;23;20021;-81
2021/01/12 00:19:36;;;;;;;28.73;21.48;;;;;;;6.87;78.06;98876.84;6185836;23;20332;-81
2021/01/12 00:22:14;;;;;;;28.60;21.65;;;;;;;6.88;78.13;98874.13;6185130;23;20028;-81
2021/01/12 00:24:45;;;;;;;27.42;19.10;;;;;;;6.89;77.89;98870.59;6185766;23;20404;-81
2021/01/12 00:27:13;;;;;;;25.58;19.48;;;;;;;6.90;78.19;98882.75;6187504;23;20028;-81
2021/01/12 00:29:40;;;;;;;26.92;20.50;;;;;;;6.93;77.98;98873.03;6187457;23;20056;-81
2021/01/12 00:32:07;;;;;;;31.25;22.02;;;;;;;6.93;78.24;98866.03;6187517;23;20028;-81
2021/01/12 00:34:34;;;;;;;25.77;20.10;;;;;;;6.95;78.23;98860.72;6186828;23;20472;-81
2021/01/12 00:37:01;;;;;;;27.45;18.52;;;;;;;6.97;78.31;98851.00;6187109;23;20348;-81
2021/01/12 00:39:27;;;;;;;29.92;20.27;;;;;;;6.95;78.13;98848.47;6161288;23;20025;-81
2021/01/12 00:41:55;;;;;;;23.40;18.85;;;;;;;6.94;77.98;98848.56;6186810;23;20674;-81
2021/01/12 00:44:25;;;;;;;23.58;18.48;;;;;;;6.95;78.22;98847.66;6186811;23;20364;-81
2021/01/12 00:46:52;;;;;;;24.27;18.90;;;;;;;6.98;78.05;98850.06;6187282;23;20025;-81
2021/01/12 00:49:21;;;;;;;26.42;19.13;;;;;;;6.99;78.36;98842.13;6186967;23;20021;-81
2021/01/12 00:51:48;;;;;;;27.52;17.98;;;;;;;7.01;78.19;98834.19;6187288;23;20020;-81
2021/01/12 00:54:16;;;;;;;22.88;17.25;;;;;;;7.03;77.93;98829.75;6187060;23;20029;-81
2021/01/12 00:56:47;;;;;;;25.30;17.63;;;;;;;7.03;78.30;98829.75;6187215;23;20025;-81
2021/01/12 00:59:13;;;;;;;20.70;15.95;;;;;;;7.06;78.34;98841.81;6187235;23;20103;-82
2021/01/12 01:01:39;;;;;;;23.77;18.55;;;;;;;7.04;78.08;98827.00;6186794;23;20076;-81
2021/01/12 01:04:06;;;;;;;22.13;17.52;;;;;;;7.06;78.04;98833.94;6186860;23;20028;-81
2021/01/12 01:06:33;;;;;;;19.25;15.73;;;;;;;7.03;78.06;98809.63;6187086;23;20025;-81
2021/01/12 01:08:59;;;;;;;22.13;16.48;;;;;;;7.02;78.46;98809.72;6187176;23;20021;-82
2021/01/12 01:11:25;;;;;;;20.58;14.75;;;;;;;7.08;78.28;98803.28;6187047;23;20029;-83
2021/01/12 01:13:51;;;;;;;21.27;15.07;;;;;;;7.07;78.33;98807.69;6186407;23;20456;-82
2021/01/12 01:16:17;;;;;;;17.67;14.82;;;;;;;7.09;78.19;98803.19;6186796;23;20025;-82
2021/01/12 01:18:43;;;;;;;19.90;15.13;;;;;;;7.11;78.38;98803.13;6187032;23;20025;-83
2021/01/12 01:21:13;;;;;;;23.88;16.63;;;;;;;7.11;78.20;98784.81;6186778;23;20025;-83
2021/01/12 01:23:39;;;;;;;19.10;14.38;;;;;;;7.14;78.01;98789.88;6186937;23;20340;-82
2021/01/12 01:26:06;;;;;;;20.23;15.60;;;;;;;7.15;78.06;98783.69;6187117;23;20021;-82
2021/01/12 01:28:32;;;;;;;17.92;14.63;;;;;;;7.16;78.17;98785.38;6187139;23;20021;-82
2021/01/12 01:30:58;;;;;;;21.98;14.13;;;;;;;7.17;78.26;98787.03;6186531;23;20072;-82
2021/01/12 01:33:25;;;;;;;18.80;15.25;;;;;;;7.20;78.03;98778.16;6186669;23;20021;-82
2021/01/12 01:35:51;;;;;;;18.83;14.68;;;;;;;7.21;78.26;98777.25;6186607;23;20021;-82
2021/01/12 01:38:17;;;;;;;17.92;14.15;;;;;;;7.21;78.02;98780.69;6186457;23;20333;-82
2021/01/12 01:40:43;;;;;;;18.40;13.80;;;;;;;7.24;78.30;98770.06;6186802;23;20029;-82
2021/01/12 01:43:15;;;;;;;17.50;14.32;;;;;;;7.21;77.96;98772.03;6185990;23;20017;-82
2021/01/12 01:45:42;;;;;;;14.45;11.40;;;;;;;7.24;77.94;98782.28;6186901;23;20025;-82
2021/01/12 01:48:09;;;;;;;17.08;13.65;;;;;;;7.26;78.35;98789.13;6186871;23;20056;-82
2021/01/12 01:50:35;;;;;;;17.80;14.02;;;;;;;7.26;78.13;98768.19;6186248;23;20026;-83
2021/01/12 01:53:02;;;;;;;15.85;12.68;;;;;;;7.27;78.41;98754.19;6186058;23;20384;-82
2021/01/12 01:55:28;;;;;;;16.52;13.23;;;;;;;7.29;78.42;98756.72;6186034;23;20029;-83
2021/01/12 01:57:54;;;;;;;15.48;11.82;;;;;;;7.30;78.26;98751.34;6160717;23;20021;-83
2021/01/12 02:00:21;;;;;;;15.20;12.15;;;;;;;7.32;78.23;98755.69;6186944;23;20020;-83
2021/01/12 02:03:12;;;;;;;15.05;12.05;;;;;;;7.30;77.97;98748.75;6185951;23;20460;-83
2021/01/12 02:05:49;;;;;;;18.15;13.50;;;;;;;7.30;77.88;98751.34;6186517;23;20032;-82
2021/01/12 02:08:48;;;;;;;16.30;12.48;;;;;;;7.31;77.99;98739.13;6186500;23;20024;-82
2021/01/12 02:11:15;;;;;;;15.75;11.80;;;;;;;7.35;78.32;98738.00;6186013;23;20059;-83
2021/01/12 02:13:43;;;;;;;16.55;12.13;;;;;;;7.35;78.29;98727.53;6186176;23;20039;-83
2021/01/12 02:16:11;;;;;;;18.27;12.93;;;;;;;7.37;78.13;98728.25;6186744;23;20025;-82
2021/01/12 02:18:38;;;;;;;13.48;11.30;;;;;;;7.38;78.56;98724.72;6186446;23;20021;-83
2021/01/12 02:21:05;;;;;;;13.68;11.80;;;;;;;7.38;78.20;98714.25;6186417;23;20032;-82
2021/01/12 02:23:47;;;;;;;14.93;11.65;;;;;;;7.37;78.37;98720.41;6186050;23;20021;-82
2021/01/12 02:26:13;;;;;;;20.55;11.80;;;;;;;7.40;78.33;98703.69;6186369;23;20024;-83
2021/01/12 02:28:39;;;;;;;12.88;11.02;;;;;;;7.41;78.43;98708.81;6186385;23;20025;-82
2021/01/12 02:31:05;;;;;;;13.20;10.43;;;;;;;7.42;78.46;98705.28;6186238;23;20021;-83
2021/01/12 02:33:38;;;;;;;11.65;10.23;;;;;;;7.43;78.42;98696.50;6186065;23;20021;-82
2021/01/12 02:36:07;;;;;;;13.63;10.52;;;;;;;7.44;78.33;98686.84;6159669;23;20036;-83
2021/01/12 02:38:35;;;;;;;12.88;10.57;;;;;;;7.46;78.65;98707.69;6185897;23;20443;-82
2021/01/12 02:41:12;;;;;;;12.93;10.05;;;;;;;7.46;78.55;98682.38;6186612;23;20028;-83
2021/01/12 02:43:40;;;;;;;12.25;9.85;;;;;;;7.49;78.39;98663.84;6186335;23;20017;-82
2021/01/12 02:46:07;;;;;;;11.35;9.95;;;;;;;7.51;78.26;98672.44;6186341;23;20033;-83
2021/01/12 02:48:35;;;;;;;11.45;9.27;;;;;;;7.53;78.38;98664.50;6185725;23;20075;-83
2021/01/12 02:51:02;;;;;;;14.98;10.02;;;;;;;7.54;78.46;98653.09;6186264;23;20024;-82
2021/01/12 02:53:28;;;;;;;11.13;9.05;;;;;;;7.53;78.56;98657.50;6185458;23;20075;-82
2021/01/12 02:55:54;;;;;;;11.63;9.10;;;;;;;7.53;78.22;98654.03;6186013;23;20028;-83
2021/01/12 02:58:20;;;;;;;10.13;8.35;;;;;;;7.55;78.36;98644.28;6186274;23;20025;-83
2021/01/12 03:00:46;;;;;;;12.90;8.27;;;;;;;7.56;78.38;98643.38;6186054;23;20407;-83
2021/01/12 03:03:13;;;;;;;9.65;7.97;;;;;;;7.55;78.51;98620.72;6185656;23;20096;-82
2021/01/12 03:05:39;;;;;;;9.20;8.20;;;;;;;7.58;78.43;98638.03;6185428;23;20071;-81
2021/01/12 03:08:06;;;;;;;10.60;7.82;;;;;;;7.59;78.54;98624.81;6186003;23;20025;-82
2021/01/12 03:10:32;;;;;;;9.80;7.65;;;;;;;7.60;78.25;98621.28;6186035;23;20021;-82
2021/01/12 03:12:58;;;;;;;10.32;7.72;;;;;;;7.62;78.53;98623.81;6185794;23;20021;-82
2021/01/12 03:15:25;;;;;;;9.70;7.35;;;;;;;7.63;78.53;98597.50;6185914;23;20029;-82
2021/01/12 03:17:52;;;;;;;8.50;6.68;;;;;;;7.64;78.64;98607.06;6185673;23;20527;-82
2021/01/12 03:20:18;;;;;;;8.02;7.20;;;;;;;7.66;78.90;98599.06;6185385;23;20024;-82
2021/01/12 03:22:44;;;;;;;9.75;7.75;;;;;;;7.67;78.34;98608.63;6185212;23;20463;-81
2021/01/12 03:25:10;;;;;;;7.95;7.15;;;;;;;7.68;78.36;98598.06;6185838;23;20025;-82
2021/01/12 03:27:37;;;;;;;6.75;6.05;;;;;;;7.69;78.66;98591.88;6185943;23;20021;-82
2021/01/12 03:30:05;;;;;;;8.05;6.60;;;;;;;7.71;78.22;98583.09;6185879;23;20108;-82
2021/01/12 03:32:31;;;;;;;9.05;7.43;;;;;;;7.71;78.31;98599.66;6185383;23;20021;-82
2021/01/12 03:35:08;;;;;;;7.75;6.70;;;;;;;7.68;78.28;98569.25;6154761;23;20701;-85
2021/01/12 03:37:53;;;;;;;6.95;6.25;;;;;;;7.71;77.93;98564.75;6185914;23;20025;-86
2021/01/12 03:40:35;;;;;;;7.72;6.15;;;;;;;7.71;77.94;98568.22;6184967;23;20107;-85
2021/01/12 03:43:01;;;;;;;7.70;5.97;;;;;;;7.76;78.46;98566.13;6158945;23;20021;-86
2021/01/12 03:45:30;;;;;;;6.35;5.53;;;;;;;7.78;78.08;98555.56;6155137;23;20053;-86
2021/01/12 03:47:57;;;;;;;6.20;5.60;;;;;;;7.78;78.36;98553.75;6156386;23;20405;-85
2021/01/12 03:50:25;;;;;;;7.97;6.07;;;;;;;7.76;78.39;98555.66;6156400;23;20026;-86
2021/01/12 03:52:55;;;;;;;6.30;5.70;;;;;;;7.76;78.23;98542.56;6130437;23;20022;-86
2021/01/12 03:55:30;;;;;;;9.00;6.20;;;;;;;7.77;78.55;98546.84;6132493;23;20353;-86
2021/01/12 03:57:56;;;;;;;5.90;5.25;;;;;;;7.79;78.56;98544.13;6130174;23;20026;-86
2021/01/12 04:00:22;;;;;;;5.30;4.80;;;;;;;7.81;78.87;98543.09;6130671;23;20023;-86
2021/01/12 04:02:48;;;;;;;6.38;5.53;;;;;;;7.82;78.50;98523.81;6132035;23;20025;-86
2021/01/12 04:05:15;;;;;;;6.32;5.72;;;;;;;7.83;78.77;98524.66;6131625;23;20456;-84
2021/01/12 04:07:41;;;;;;;5.90;5.07;;;;;;;7.85;78.67;98535.03;6107780;23;20072;-86
2021/01/12 04:10:08;;;;;;;6.32;5.20;;;;;;;7.86;78.74;98536.72;6132270;23;20022;-87
2021/01/12 04:12:34;;;;;;;8.52;5.07;;;;;;;7.88;78.48;98506.00;6157913;23;20018;-86
2021/01/12 04:15:00;;;;;;;5.78;5.07;;;;;;;7.88;78.76;98504.22;6132226;23;20358;-86
2021/01/12 04:17:26;;;;;;;5.93;5.22;;;;;;;7.90;78.68;98515.47;6132054;23;20037;-87
2021/01/12 04:19:52;;;;;;;5.40;4.57;;;;;;;7.91;78.41;98508.44;6158123;23;20068;-86
2021/01/12 04:22:19;;;;;;;5.10;4.60;;;;;;;7.92;78.71;98516.19;6158200;23;20029;-87
2021/01/12 04:24:45;;;;;;;5.75;5.25;;;;;;;7.94;78.17;98505.63;6132016;23;20080;-86
2021/01/12 04:27:11;;;;;;;4.90;4.40;;;;;;;7.95;78.44;98505.50;6132126;23;20029;-86
2021/01/12 04:29:37;;;;;;;5.15;4.53;;;;;;;7.95;78.65;98491.56;6131891;23;20025;-85
2021/01/12 04:32:03;;;;;;;5.22;4.63;;;;;;;7.95;78.64;98509.91;6132001;23;20479;-85
2021/01/12 04:34:30;;;;;;;4.75;4.03;;;;;;;7.97;78.76;98496.72;6156377;23;20084;-86
2021/01/12 04:36:56;;;;;;;4.47;4.07;;;;;;;7.98;78.69;98485.28;6131599;23;20084;-86
2021/01/12 04:39:26;;;;;;;4.35;3.90;;;;;;;8.00;78.57;98486.03;6158235;23;20023;-86
2021/01/12 04:41:53;;;;;;;4.22;3.83;;;;;;;8.01;78.70;98490.31;6131774;23;20025;-86
2021/01/12 04:44:19;;;;;;;5.35;4.00;;;;;;;8.02;79.02;98481.50;6131900;23;20025;-86
2021/01/12 04:46:45;;;;;;;4.30;3.90;;;;;;;8.03;78.60;98468.31;6131806;23;20080;-86
2021/01/12 04:49:11;;;;;;;4.50;4.10;;;;;;;8.04;78.53;98471.78;6132216;23;20025;-86
2021/01/12 04:51:38;;;;;;;4.32;3.92;;;;;;;8.04;78.91;98467.34;6131935;23;20021;-86
2021/01/12 04:54:04;;;;;;;4.63;4.00;;;;;;;8.06;78.77;98477.75;6131100;23;20507;-86
2021/01/12 04:56:30;;;;;;;3.78;3.22;;;;;;;8.07;78.72;98459.28;6157787;23;20105;-86
2021/01/12 04:58:57;;;;;;;4.25;3.70;;;;;;;8.10;78.90;98460.06;6157716;23;20025;-86
2021/01/12 05:01:25;;;;;;;3.60;3.30;;;;;;;8.11;78.48;98459.91;6131699;23;20018;-86
2021/01/12 05:03:56;;;;;;;3.60;3.30;;;;;;;8.13;78.44;98451.94;6132109;23;20017;-86
2021/01/12 05:06:28;;;;;;;4.07;3.33;;;;;;;8.13;78.58;98452.81;6132314;23;20025;-86
2021/01/12 05:09:22;;;;;;;4.10;3.65;;;;;;;8.14;78.50;98449.22;6131458;23;20024;-86
2021/01/12 05:11:58;;;;;;;3.92;3.47;;;;;;;8.20;78.35;98440.97;6156605;23;20030;-86
2021/01/12 05:14:40;;;;;;;4.88;3.47;;;;;;;8.18;78.17;98442.00;6133087;23;20017;-86
2021/01/12 05:17:20;;;;;;;4.30;3.50;;;;;;;8.18;78.19;98442.00;6133402;23;20028;-87
2021/01/12 05:19:52;;;;;;;4.00;3.60;;;;;;;8.20;78.17;98443.59;6157307;23;20029;-86
2021/01/12 05:22:20;;;;;;;3.60;3.20;;;;;;;8.21;78.51;98423.44;6131545;23;20041;-87
2021/01/12 05:25:19;;;;;;;3.10;2.80;;;;;;;8.24;78.64;98427.63;6157648;23;20029;-86
2021/01/12 05:27:43;;;;;;;3.92;2.90;;;;;;;8.25;78.51;98435.38;6157433;23;20444;-86
2021/01/12 05:30:10;;;;;;;3.55;3.25;;;;;;;8.25;78.46;98429.28;6157412;23;20025;-86
2021/01/12 05:32:39;;;;;;;3.53;3.15;;;;;;;8.23;78.36;98425.97;6156924;23;20028;-86
2021/01/12 05:35:07;;;;;;;3.92;3.28;;;;;;;8.23;78.40;98434.69;6131043;23;20025;-87
2021/01/12 05:37:33;;;;;;;4.35;3.40;;;;;;;8.24;78.29;98423.25;6131208;23;20092;-86
2021/01/12 05:40:04;;;;;;;3.50;3.17;;;;;;;8.25;78.56;98429.28;6131577;23;20021;-87
2021/01/12 05:42:31;;;;;;;3.15;2.85;;;;;;;8.25;78.81;98424.91;6131436;23;20329;-87
2021/01/12 05:44:57;;;;;;;3.30;2.80;;;;;;;8.27;78.52;98420.41;6157014;23;20033;-86
2021/01/12 05:47:23;;;;;;;3.50;3.20;;;;;;;8.27;78.64;98415.16;6131315;23;20080;-87
2021/01/12 05:49:52;;;;;;;3.30;2.97;;;;;;;8.27;78.46;98411.69;6131375;23;20029;-87
2021/01/12 05:52:20;;;;;;;3.78;3.38;;;;;;;8.29;78.73;98413.25;6131382;23;20460;-87
2021/01/12 05:55:08;;;;;;;3.67;3.30;;;;;;;8.27;78.64;98415.16;6130894;23;20037;-87
2021/01/12 05:57:47;;;;;;;3.97;3.42;;;;;;;8.30;78.35;98414.94;6131118;23;20032;-86
2021/01/12 06:00:14;;;;;;;4.30;3.25;;;;;;;8.32;78.80;98404.34;6131196;23;20026;-87
2021/01/12 06:02:46;;;;;;;3.13;2.67;;;;;;;8.32;78.35;98422.69;6156897;23;20017;-87
2021/01/12 06:05:18;;;;;;;3.90;3.28;;;;;;;8.34;78.33;98416.41;6131859;23;20017;-86
2021/01/12 06:07:47;;;;;;;3.33;3.03;;;;;;;8.37;78.39;98414.53;6130713;23;20017;-87
2021/01/12 06:10:20;;;;;;;3.50;3.10;;;;;;;8.38;78.57;98424.06;6130452;23;20018;-86
2021/01/12 06:13:01;;;;;;;4.15;3.22;;;;;;;8.41;78.37;98414.19;6156624;23;20017;-85
2021/01/12 06:15:33;;;;;;;3.78;2.90;;;;;;;8.42;78.04;98415.88;6131748;23;20527;-85
2021/01/12 06:18:11;;;;;;;4.20;3.33;;;;;;;8.41;78.28;98421.22;6156944;23;20021;-86
2021/01/12 06:21:08;;;;;;;3.30;3.00;;;;;;;8.42;78.42;98421.13;6131042;23;20041;-85
2021/01/12 06:24:08;;;;;;;3.33;3.03;;;;;;;8.48;78.29;98417.22;6113592;23;20036;-86
2021/01/12 06:26:45;;;;;;;4.47;4.00;;;;;;;8.46;78.34;98425.19;6156428;23;20392;-86
2021/01/12 06:29:20;;;;;;;4.05;3.60;;;;;;;8.48;78.36;98420.69;6131875;23;20360;-85
2021/01/12 06:31:56;;;;;;;5.43;3.97;;;;;;;8.48;77.99;98420.69;6131095;23;20041;-86
2021/01/12 06:34:25;;;;;;;4.30;3.83;;;;;;;8.50;78.30;98417.97;6131801;23;20072;-86
2021/01/12 06:36:55;;;;;;;4.15;3.75;;;;;;;8.49;77.94;98416.28;6130693;23;20018;-86
2021/01/12 06:39:24;;;;;;;4.30;3.88;;;;;;;8.49;78.12;98424.16;6131188;23;20029;-85
2021/01/12 06:41:51;;;;;;;3.65;3.17;;;;;;;8.48;78.29;98422.47;6131053;23;20060;-85
2021/01/12 06:44:27;;;;;;;5.65;3.97;;;;;;;8.45;77.97;98415.66;6130925;23;20377;-86
2021/01/12 06:46:54;;;;;;;4.07;3.33;;;;;;;8.49;78.13;98421.53;6155382;23;20018;-84
2021/01/12 06:49:28;;;;;;;3.72;3.05;;;;;;;8.48;78.36;98425.09;6131014;23;20021;-86
2021/01/12 06:52:20;;;;;;;3.80;3.20;;;;;;;8.46;78.01;98430.44;6131160;23;20022;-85
2021/01/12 06:54:56;;;;;;;3.70;3.08;;;;;;;8.51;78.16;98417.00;6154589;23;20021;-85
2021/01/12 06:57:34;;;;;;;3.65;2.85;;;;;;;8.51;78.20;98424.88;6133232;23;20021;-86
2021/01/12 07:00:07;;;;;;;3.85;2.92;;;;;;;8.49;77.67;98429.41;6156644;23;20028;-86
2021/01/12 07:02:35;;;;;;;3.38;2.78;;;;;;;8.51;77.85;98430.13;6156343;23;20072;-86
2021/01/12 07:05:21;;;;;;;3.88;2.83;;;;;;;8.50;77.63;98424.97;6130578;23;20018;-85
2021/01/12 07:07:54;;;;;;;3.25;2.08;;;;;;;8.52;77.88;98418.69;6131000;23;20027;-85
2021/01/12 07:10:50;;;;;;;4.20;2.90;;;;;;;8.48;77.54;98419.84;6154229;23;20080;-86
2021/01/12 07:13:36;;;;;;;4.10;2.60;;;;;;;8.50;77.56;98427.59;6155715;23;20329;-85
2021/01/12 07:16:14;;;;;;;3.17;2.40;;;;;;;8.46;77.80;98422.56;6156246;23;20025;-85
2021/01/12 07:18:57;;;;;;;3.80;2.30;;;;;;;8.43;77.34;98417.56;6131149;23;20510;-85
2021/01/12 07:21:28;;;;;;;4.95;2.53;;;;;;;8.46;77.96;98419.94;6130591;23;20017;-84
2021/01/12 07:24:18;;;;;;;3.08;2.13;;;;;;;8.42;77.81;98422.91;6155935;23;20017;-86
2021/01/12 07:26:48;;;;;;;3.78;2.40;;;;;;;8.45;77.73;98420.91;6126582;23;20068;-85
2021/01/12 07:29:16;;;;;;;4.18;2.40;;;;;;;8.43;78.06;98414.94;6130010;23;20460;-85
2021/01/12 07:32:00;;;;;;;3.00;2.20;;;;;;;8.43;77.74;98412.31;6155910;23;20045;-84
2021/01/12 07:34:35;;;;;;;2.75;2.00;;;;;;;8.42;77.65;98415.03;6131471;23;20092;-85
2021/01/12 07:37:07;;;;;;;4.22;2.35;;;;;;;8.42;77.90;98420.28;6158322;23;20025;-85
2021/01/12 07:39:58;;;;;;;3.10;2.10;;;;;;;8.42;78.12;98420.28;6158089;23;20472;-85
2021/01/12 07:46:34;;;;;;;3.47;2.40;;;;;;;8.41;77.70;98426.47;6011012;23;20487;-85
2021/01/12 07:49:25;;;;;;;3.35;2.50;;;;;;;8.41;77.80;98432.53;5986621;23;20113;-83
2021/01/12 07:52:33;;;;;;;4.22;2.65;;;;;;;8.42;77.54;98434.25;6133388;23;20456;-84
2021/01/12 07:55:21;;;;;;;3.17;2.60;;;;;;;8.41;77.81;98435.16;6132660;23;20048;-85
2021/01/12 07:58:43;;;;;;;3.75;2.85;;;;;;;8.42;78.12;98438.63;6128011;23;20036;-85
2021/01/12 08:01:42;;;;;;;4.57;2.80;;;;;;;8.43;77.80;98438.53;6131902;23;20037;-85
2021/01/12 08:07:23;;;;;;;6.30;3.30;;;;;;;8.48;78.27;98446.06;6041524;23;20408;-84
2021/01/12 08:10:04;;;;;;;5.47;3.35;;;;;;;8.45;78.27;98449.75;6016987;23;20031;-85
2021/01/12 08:16:23;;;;;;;4.88;3.58;;;;;;;8.47;78.26;98458.34;5963396;24;20024;-84
2021/01/12 08:19:09;;;;;;;4.03;3.47;;;;;;;8.53;78.15;98461.53;5979675;23;20060;-85
2021/01/12 08:21:44;;;;;;;5.32;4.18;;;;;;;8.50;77.92;98461.69;6070808;23;20335;-84
2021/01/12 08:24:11;;;;;;;4.85;3.88;;;;;;;8.54;78.45;98461.41;6070525;23;20025;-85
2021/01/12 08:31:03;;;;;;;6.00;3.97;;;;;;;8.56;78.02;98466.56;5982386;24;20028;-85
2021/01/12 08:38:05;;;;;;;4.15;3.65;;;;;;;8.57;77.81;98474.31;5879269;24;20361;-83
2021/01/12 08:41:17;;;;;;;5.00;3.63;;;;;;;8.58;77.91;98483.03;5954703;24;20036;-85
2021/01/12 08:48:13;;;;;;;2.50;2.05;;;;;;;8.59;77.90;98505.69;6070279;23;20085;-85
2021/01/12 08:58:44;;;;;;;1.60;1.25;;;;;;;8.56;76.98;98534.75;5845998;24;20517;-86
2021/01/12 09:01:16;;;;;;;1.58;1.48;;;;;;;8.54;77.18;98534.84;5846612;24;20033;-88
2021/01/12 09:03:43;;;;;;;2.72;1.48;;;;;;;8.51;77.25;98540.28;5845626;24;20087;-85
2021/01/12 09:06:19;;;;;;;3.55;1.67;;;;;;;8.46;76.44;98539.75;5966360;23;20391;-86
2021/01/12 09:09:12;;;;;;;3.13;1.90;;;;;;;8.44;76.56;98550.34;5982312;24;20028;-86
2021/01/12 09:11:46;;;;;;;5.45;2.08;;;;;;;8.41;76.98;98555.78;5982467;24;20024;-85
2021/01/12 09:14:22;;;;;;;3.30;2.15;;;;;;;8.37;76.94;98551.69;5982006;24;20471;-86
2021/01/12 09:16:55;;;;;;;2.90;2.00;;;;;;;8.34;76.80;98562.41;5980062;24;20028;-86
2021/01/12 09:19:25;;;;;;;3.75;2.20;;;;;;;8.32;77.04;98562.50;5981632;24;20028;-85
2021/01/12 09:22:07;;;;;;;3.97;2.33;;;;;;;8.28;76.73;98570.66;6032221;23;20121;-85
2021/01/12 09:24:53;;;;;;;5.00;2.30;;;;;;;8.25;76.65;98569.09;6044057;23;20033;-85
2021/01/12 09:27:34;;;;;;;2.67;1.77;;;;;;;8.25;77.10;98570.88;6044413;23;20086;-85
2021/01/12 09:30:24;;;;;;;3.88;1.95;;;;;;;8.26;77.32;98577.81;5933083;24;20129;-82
2021/01/12 09:33:06;;;;;;;3.65;2.05;;;;;;;8.27;77.18;98587.34;5932144;24;20030;-85
2021/01/12 09:36:11;;;;;;;5.53;2.33;;;;;;;8.24;77.00;98596.25;5938172;24;20047;-85
2021/01/12 09:39:02;;;;;;;5.68;2.33;;;;;;;8.24;76.90;98600.66;5953530;24;20033;-83
2021/01/12 09:41:38;;;;;;;3.83;2.30;;;;;;;8.26;77.01;98604.03;5947502;24;20039;-83
2021/01/12 09:44:42;;;;;;;2.95;2.20;;;;;;;8.22;76.80;98613.84;5952827;24;20021;-85
2021/01/12 09:47:26;;;;;;;3.03;2.30;;;;;;;8.21;76.84;98605.16;5925917;24;20115;-83
2021/01/12 09:50:19;;;;;;;3.78;2.28;;;;;;;8.21;76.68;98620.91;5953504;24;20146;-85
2021/01/12 09:53:08;;;;;;;5.25;2.28;;;;;;;8.20;76.82;98623.63;5952614;24;20073;-83
2021/01/12 09:56:05;;;;;;;3.55;2.08;;;;;;;8.18;76.74;98631.56;5952975;24;20496;-85
2021/01/12 10:02:17;;;;;;;3.47;2.22;;;;;;;8.16;76.86;98641.34;5940036;24;20338;-85
2021/01/12 10:04:58;;;;;;;5.00;2.22;;;;;;;8.20;77.32;98652.44;5941323;24;20556;-86
2021/01/12 10:08:17;;;;;;;;;;;;;;;;;;;;;
2021/01/12 10:10:56;;;;;;;3.58;1.65;;;;;;;8.15;76.61;98652.72;5953003;24;20499;-84
2021/01/12 10:13:22;;;;;;;2.50;2.03;;;;;;;8.14;76.38;98663.31;5953047;24;20032;-85
2021/01/12 10:15:50;;;;;;;5.40;2.83;;;;;;;8.09;76.49;98668.88;5930648;24;20077;-86
2021/01/12 10:18:17;;;;;;;5.93;2.28;;;;;;;8.04;76.30;98671.78;5954709;24;20095;-84
2021/01/12 10:20:43;;;;;;;4.28;2.10;;;;;;;8.01;76.37;98673.75;5953927;24;20024;-85
2021/01/12 10:23:09;;;;;;;3.88;1.92;;;;;;;7.97;76.48;98688.00;5954888;24;20016;-87
2021/01/12 10:25:36;;;;;;;3.28;1.60;;;;;;;7.91;76.40;98690.06;5956326;24;20036;-85
2021/01/12 10:28:03;;;;;;;4.60;2.00;;;;;;;7.88;76.41;98682.41;5932444;24;20029;-84
2021/01/12 10:30:29;;;;;;;6.88;1.70;;;;;;;7.86;76.80;98696.53;5956383;24;20039;-85
2021/01/12 10:32:56;;;;;;;3.08;1.80;;;;;;;7.84;76.92;98701.88;5953144;24;20021;-85
2021/01/12 10:35:22;;;;;;;3.30;2.05;;;;;;;7.82;77.01;98696.72;5980108;23;20030;-86
2021/01/12 10:37:52;;;;;;;4.32;1.60;;;;;;;7.82;77.09;98706.38;6071431;23;20030;-85
2021/01/12 10:40:19;;;;;;;4.70;1.42;;;;;;;7.81;77.03;98700.28;6045608;23;20027;-83
2021/01/12 10:42:45;;;;;;;7.63;1.20;;;;;;;7.81;76.80;98705.53;6068136;23;20346;-84
2021/01/12 10:45:13;;;;;;;6.45;1.63;;;;;;;7.80;76.64;98710.84;6069523;23;20038;-86
2021/01/12 10:47:44;;;;;;;6.05;1.13;;;;;;;7.79;76.76;98711.81;6047062;23;20075;-85
2021/01/12 10:50:16;;;;;;;3.72;0.88;;;;;;;7.75;76.39;98711.16;6045845;23;20023;-85
2021/01/12 10:52:42;;;;;;;8.75;1.38;;;;;;;7.77;76.93;98708.41;6068684;23;20034;-85
2021/01/12 10:55:09;;;;;;;8.32;1.10;;;;;;;7.76;76.82;98720.69;6046310;23;20026;-85
2021/01/12 10:57:35;;;;;;;9.15;1.40;;;;;;;7.76;76.76;98722.47;6044364;23;20027;-84
2021/01/12 11:00:05;;;;;;;10.05;1.23;;;;;;;7.74;76.50;98713.88;6045243;23;20034;-84
2021/01/12 11:02:32;;;;;;;5.35;1.25;;;;;;;7.75;77.24;98719.03;6046914;23;20462;-85
2021/01/12 11:05:00;;;;;;;7.43;1.52;;;;;;;7.77;77.37;98716.28;6044930;23;20078;-86
2021/01/12 11:07:27;;;;;;;3.95;1.25;;;;;;;7.79;77.56;98730.13;6044797;23;20026;-84
2021/01/12 11:09:53;;;;;;;9.50;1.80;;;;;;;7.80;77.09;98727.44;6070253;23;20098;-84
2021/01/12 11:12:19;;;;;;;8.52;1.48;;;;;;;7.84;77.02;98732.50;6069398;23;20500;-86
2021/01/12 11:14:46;;;;;;;8.43;1.45;;;;;;;7.85;77.05;98740.22;6070431;23;20019;-86
2021/01/12 11:17:13;;;;;;;4.85;1.40;;;;;;;7.87;77.10;98748.00;6071507;23;20358;-86
2021/01/12 11:19:40;;;;;;;8.00;1.30;;;;;;;7.87;77.04;98746.22;6071097;23;20029;-84
2021/01/12 11:22:07;;;;;;;4.82;1.60;;;;;;;7.88;76.68;98750.53;6044104;23;20023;-85
2021/01/12 11:24:33;;;;;;;5.20;1.50;;;;;;;7.88;76.18;98752.28;6069098;23;20033;-84
2021/01/12 11:27:03;;;;;;;5.70;1.27;;;;;;;7.84;75.63;98748.22;6071019;23;20105;-85
2021/01/12 11:29:29;;;;;;;2.58;0.98;;;;;;;7.83;76.03;98760.44;6044936;23;20023;-85
2021/01/12 11:31:56;;;;;;;4.05;1.00;;;;;;;7.79;76.38;98751.94;6071290;23;20045;-84
2021/01/12 11:34:24;;;;;;;5.30;1.00;;;;;;;7.76;76.25;98754.75;6045482;23;20047;-85
2021/01/12 11:36:50;;;;;;;6.45;1.05;;;;;;;7.74;76.05;98756.59;6044538;23;20027;-84
2021/01/12 11:39:18;;;;;;;2.75;0.70;;;;;;;7.73;76.57;98754.09;6071449;23;20030;-85
2021/01/12 11:41:48;;;;;;;6.13;1.25;;;;;;;7.72;76.68;98762.88;6070087;23;20105;-84
2021/01/12 11:44:15;;;;;;;2.17;0.75;;;;;;;7.72;76.91;98768.13;6045447;23;20026;-84
2021/01/12 11:46:43;;;;;;;6.03;1.02;;;;;;;7.74;77.18;98774.13;6069137;23;20312;-86
2021/01/12 11:49:12;;;;;;;3.63;0.85;;;;;;;7.77;77.02;98768.66;6071300;23;20031;-86
2021/01/12 11:51:41;;;;;;;3.50;1.17;;;;;;;7.79;76.47;98774.69;6069138;23;20029;-84
2021/01/12 11:54:09;;;;;;;3.90;0.82;;;;;;;7.80;76.71;98776.34;6069676;23;20458;-86
2021/01/12 11:56:37;;;;;;;5.18;1.10;;;;;;;7.80;76.81;98777.22;6042854;23;20030;-84
2021/01/12 11:59:06;;;;;;;6.38;1.10;;;;;;;7.82;76.63;98777.13;6068213;23;20023;-85
2021/01/12 12:01:46;;;;;;;2.72;1.27;;;;;;;7.79;76.10;98772.06;6069972;23;20027;-84
2021/01/12 12:04:13;;;;;;;2.85;1.00;;;;;;;7.84;76.21;98779.66;6068726;23;20530;-86
2021/01/12 12:06:39;;;;;;;8.35;1.50;;;;;;;7.84;76.61;98779.66;6043779;23;20030;-86
2021/01/12 12:09:07;;;;;;;5.20;1.65;;;;;;;7.84;76.79;98782.25;6044674;23;20027;-84
2021/01/12 12:11:40;;;;;;;3.75;1.17;;;;;;;7.85;77.07;98784.75;6069153;23;20660;-84
2021/01/12 12:14:08;;;;;;;6.25;1.50;;;;;;;7.91;77.73;98778.31;6042785;23;20022;-85
2021/01/12 12:16:36;;;;;;;5.15;1.33;;;;;;;7.95;77.48;98787.66;6069360;23;20058;-86
2021/01/12 12:19:04;;;;;;;5.57;1.77;;;;;;;8.00;77.40;98784.78;6069295;23;20038;-84
2021/01/12 12:21:50;;;;;;;4.78;1.50;;;;;;;8.05;77.26;98786.19;6049366;23;20027;-86
2021/01/12 12:24:17;;;;;;;9.90;2.35;;;;;;;8.10;77.16;98783.25;6070191;23;20463;-86
2021/01/12 12:26:45;;;;;;;13.70;1.60;;;;;;;8.13;76.88;98783.06;6069224;23;20034;-84
2021/01/12 12:29:11;;;;;;;4.25;1.75;;;;;;;8.19;76.95;98782.66;6069408;23;20033;-87
2021/01/12 12:31:38;;;;;;;4.50;1.30;;;;;;;8.24;77.38;98784.16;6068661;23;20406;-84
2021/01/12 12:34:04;;;;;;;7.00;1.70;;;;;;;8.28;76.82;98788.28;6045179;23;20328;-83
2021/01/12 12:36:31;;;;;;;7.05;1.60;;;;;;;8.34;77.29;98796.59;6045219;23;20023;-84
2021/01/12 12:38:58;;;;;;;1.92;1.20;;;;;;;8.41;77.40;98796.22;6070683;23;20098;-84